createdAt,value
2023-04-30T00:01:49.771Z,9.90
2023-04-30T00:04:17.615Z,9.98
2023-04-30T00:06:45.439Z,9.79
2023-04-30T00:09:13.232Z,9.47
2023-04-30T00:11:40.980Z,9.73
2023-04-30T00:14:10.030Z,9.50
2023-04-30T00:16:37.851Z,9.33
2023-04-30T00:19:06.947Z,9.24
2023-04-30T00:21:34.774Z,8.92
2023-04-30T00:24:02.977Z,9.30
2023-04-30T00:26:31.209Z,9.52
2023-04-30T00:28:58.920Z,9.48
2023-04-30T00:31:26.676Z,9.08
2023-04-30T00:33:54.448Z,8.94
2023-04-30T00:36:23.571Z,9.20
2023-04-30T00:38:51.308Z,9.12
2023-04-30T00:41:20.038Z,9.25
2023-04-30T00:43:47.914Z,9.06
2023-04-30T00:46:15.731Z,8.85
2023-04-30T00:48:43.594Z,9.00
2023-04-30T00:51:11.449Z,9.11
2023-04-30T00:53:41.468Z,9.06
2023-04-30T00:56:10.890Z,8.87
2023-04-30T00:58:38.691Z,8.69
2023-04-30T01:01:07.266Z,9.03
2023-04-30T01:03:36.199Z,8.78
2023-04-30T01:06:04.382Z,8.69
2023-04-30T01:08:33.043Z,8.96
2023-04-30T01:11:13.641Z,9.14
2023-04-30T01:13:51.358Z,8.84
2023-04-30T01:16:23.911Z,8.97
2023-04-30T01:18:58.087Z,9.11
2023-04-30T01:21:26.592Z,8.65
2023-04-30T01:24:16.705Z,9.12
2023-04-30T01:27:08.498Z,8.38
2023-04-30T01:29:38.984Z,8.46
2023-04-30T01:32:06.706Z,8.85
2023-04-30T01:34:34.492Z,8.80
2023-04-30T01:37:15.360Z,8.34
2023-04-30T01:40:10.761Z,8.88
2023-04-30T01:42:46.809Z,8.67
2023-04-30T01:45:28.016Z,8.48
2023-04-30T01:48:08.130Z,8.71
2023-04-30T01:50:43.481Z,8.48
2023-04-30T01:53:17.951Z,8.26
2023-04-30T01:55:52.580Z,8.55
2023-04-30T01:58:23.793Z,8.11
2023-04-30T02:00:53.554Z,8.51
2023-04-30T02:03:21.392Z,8.55
2023-04-30T02:05:49.585Z,8.22
2023-04-30T02:08:17.380Z,8.31
2023-04-30T02:10:45.193Z,8.21
2023-04-30T02:13:12.939Z,8.20
2023-04-30T02:15:40.667Z,8.24
2023-04-30T02:18:09.793Z,8.63
2023-04-30T02:20:37.566Z,8.55
2023-04-30T02:23:05.709Z,8.34
2023-04-30T02:25:37.967Z,8.60
2023-04-30T02:28:06.386Z,8.19
2023-04-30T02:30:34.150Z,8.10
2023-04-30T02:33:02.777Z,8.22
2023-04-30T02:35:31.965Z,8.29
2023-04-30T02:37:59.684Z,8.39
2023-04-30T02:40:27.496Z,8.47
2023-04-30T02:42:56.778Z,8.33
2023-04-30T02:45:24.636Z,7.59
2023-04-30T02:47:52.542Z,8.31
2023-04-30T02:50:20.438Z,7.92
2023-04-30T02:52:49.565Z,8.10
2023-04-30T02:55:17.606Z,7.91
2023-04-30T02:57:45.342Z,7.98
2023-04-30T03:00:14.412Z,7.75
2023-04-30T03:02:42.261Z,8.13
2023-04-30T03:05:10.439Z,7.87
2023-04-30T03:07:38.178Z,7.97
2023-04-30T03:10:08.778Z,8.09
2023-04-30T03:12:36.505Z,7.82
2023-04-30T03:15:04.580Z,8.07
2023-04-30T03:17:32.402Z,8.11
2023-04-30T03:20:00.220Z,8.12
2023-04-30T03:22:27.990Z,8.47
2023-04-30T03:24:55.709Z,8.23
2023-04-30T03:27:24.823Z,8.41
2023-04-30T03:29:52.723Z,7.99
2023-04-30T03:32:20.689Z,8.29
2023-04-30T03:34:48.384Z,8.27
2023-04-30T03:37:16.116Z,8.27
2023-04-30T03:39:43.832Z,8.45
2023-04-30T03:42:11.520Z,8.17
2023-04-30T03:44:40.628Z,8.37
2023-04-30T03:47:08.368Z,8.27
2023-04-30T03:49:36.090Z,8.16
2023-04-30T03:52:05.515Z,8.00
2023-04-30T03:54:33.812Z,8.59
2023-04-30T03:57:03.785Z,8.34
2023-04-30T03:59:31.900Z,8.17
2023-04-30T04:02:01.531Z,8.05
2023-04-30T04:04:30.224Z,8.34
2023-04-30T04:06:57.986Z,8.33
2023-04-30T04:09:25.742Z,8.73
2023-04-30T04:11:53.479Z,8.56
2023-04-30T04:14:21.181Z,8.23
2023-04-30T04:16:48.909Z,8.77
2023-04-30T04:19:17.982Z,8.84
2023-04-30T04:21:45.764Z,8.63
2023-04-30T04:24:13.495Z,8.49
2023-04-30T04:26:41.415Z,8.70
2023-04-30T04:29:09.530Z,8.24
2023-04-30T04:31:38.515Z,8.58
2023-04-30T04:34:06.526Z,8.31
2023-04-30T04:36:35.600Z,8.48
2023-04-30T04:39:03.883Z,8.47
2023-04-30T04:41:32.670Z,8.84
2023-04-30T04:44:01.746Z,9.10
2023-04-30T04:46:29.752Z,8.97
2023-04-30T04:48:57.556Z,8.94
2023-04-30T04:51:25.511Z,8.49
2023-04-30T04:53:54.603Z,8.91
2023-04-30T04:56:22.416Z,8.78
2023-04-30T04:58:50.127Z,8.89
2023-04-30T05:01:17.948Z,9.05
2023-04-30T05:03:45.855Z,9.00
2023-04-30T05:06:13.703Z,8.84
2023-04-30T05:08:41.551Z,8.93
2023-04-30T05:11:10.617Z,8.85
2023-04-30T05:13:38.332Z,8.84
2023-04-30T05:16:06.452Z,8.82
2023-04-30T05:18:34.201Z,9.19
2023-04-30T05:21:01.936Z,9.02
2023-04-30T05:23:29.639Z,9.02
2023-04-30T05:25:57.368Z,8.51
2023-04-30T05:28:26.912Z,8.88
2023-04-30T05:30:54.651Z,9.15
2023-04-30T05:33:22.379Z,9.12
2023-04-30T05:35:50.121Z,9.38
2023-04-30T05:38:17.841Z,9.20
2023-04-30T05:40:46.051Z,9.08
2023-04-30T05:43:13.776Z,9.22
2023-04-30T05:45:42.879Z,9.41
2023-04-30T05:48:10.660Z,9.20
2023-04-30T05:50:38.468Z,9.51
2023-04-30T05:53:06.198Z,9.66
2023-04-30T05:55:34.508Z,9.64
2023-04-30T05:58:02.253Z,9.11
2023-04-30T06:00:29.974Z,9.50
2023-04-30T06:02:59.117Z,9.46
2023-04-30T06:05:26.912Z,9.71
2023-04-30T06:07:54.651Z,9.19
2023-04-30T06:10:22.389Z,9.03
2023-04-30T06:12:50.116Z,9.15
2023-04-30T06:15:17.898Z,9.06
2023-04-30T06:17:45.696Z,9.21
2023-04-30T06:20:15.989Z,9.33
2023-04-30T06:22:43.718Z,8.81
2023-04-30T06:25:11.460Z,9.05
2023-04-30T06:27:39.603Z,9.31
2023-04-30T06:30:08.969Z,9.27
2023-04-30T06:32:36.868Z,9.24
2023-04-30T06:35:04.890Z,8.96
2023-04-30T06:37:37.442Z,9.15
2023-04-30T06:40:06.604Z,9.24
2023-04-30T06:42:35.315Z,9.52
2023-04-30T06:45:03.309Z,9.88
2023-04-30T06:47:34.572Z,9.49
2023-04-30T06:50:02.514Z,9.17
2023-04-30T06:52:32.316Z,9.48
2023-04-30T06:55:01.676Z,9.51
2023-04-30T06:57:29.389Z,9.81
2023-04-30T06:59:57.283Z,9.51
2023-04-30T07:02:25.196Z,10.06
2023-04-30T07:04:53.182Z,9.74
2023-04-30T07:07:20.940Z,10.35
2023-04-30T07:09:49.719Z,9.81
2023-04-30T07:12:21.403Z,10.54
2023-04-30T07:14:49.129Z,10.17
2023-04-30T07:17:16.841Z,9.93
2023-04-30T07:19:44.642Z,10.56
2023-04-30T07:22:12.418Z,10.08
2023-04-30T07:24:40.202Z,10.02
2023-04-30T07:27:07.917Z,9.84
2023-04-30T07:29:37.351Z,9.90
2023-04-30T07:32:05.445Z,9.84
2023-04-30T07:34:33.241Z,10.45
2023-04-30T07:37:01.187Z,10.10
2023-04-30T07:39:29.332Z,10.05
2023-04-30T07:41:57.236Z,10.60
2023-04-30T07:44:24.969Z,10.81
2023-04-30T07:46:54.018Z,11.47
2023-04-30T07:49:21.741Z,10.56
2023-04-30T07:51:49.573Z,10.33
2023-04-30T07:54:17.396Z,10.62
2023-04-30T07:56:45.125Z,10.78
2023-04-30T07:59:12.899Z,11.25
2023-04-30T08:01:41.234Z,11.15
2023-04-30T08:04:10.679Z,11.57
2023-04-30T08:06:38.613Z,11.11
2023-04-30T08:09:06.390Z,11.05
2023-04-30T08:11:34.074Z,11.16
2023-04-30T08:14:01.892Z,10.63
2023-04-30T08:16:29.635Z,11.02
2023-04-30T08:18:57.540Z,11.02
2023-04-30T08:21:28.075Z,11.24
2023-04-30T08:23:55.847Z,10.85
2023-04-30T08:26:23.593Z,10.28
2023-04-30T08:28:51.301Z,11.03
2023-04-30T08:31:19.365Z,10.72
2023-04-30T08:33:47.111Z,10.93
2023-04-30T08:36:14.829Z,11.20
2023-04-30T08:38:43.914Z,11.10
2023-04-30T08:41:13.647Z,11.34
2023-04-30T08:43:41.989Z,11.47
2023-04-30T08:46:10.163Z,11.25
2023-04-30T08:48:38.091Z,11.85
2023-04-30T08:51:05.902Z,11.60
2023-04-30T08:53:37.027Z,11.92
2023-04-30T08:56:06.825Z,11.55
2023-04-30T08:58:34.546Z,11.68
2023-04-30T09:01:03.795Z,11.28
2023-04-30T09:03:32.391Z,11.85
2023-04-30T09:06:00.251Z,11.88
2023-04-30T09:08:44.657Z,12.02
2023-04-30T09:11:24.881Z,11.69
2023-04-30T09:13:54.509Z,11.19
2023-04-30T09:16:22.886Z,11.95
2023-04-30T09:18:50.949Z,12.21
2023-04-30T09:21:18.780Z,12.41
2023-04-30T09:23:56.992Z,12.48
2023-04-30T09:26:31.917Z,12.44
2023-04-30T09:29:00.694Z,12.41
2023-04-30T09:31:28.590Z,12.27
2023-04-30T09:33:56.317Z,12.81
2023-04-30T09:36:24.054Z,12.89
2023-04-30T09:38:51.795Z,12.48
2023-04-30T09:41:23.501Z,12.23
2023-04-30T09:43:52.873Z,12.76
2023-04-30T09:46:22.102Z,13.68
2023-04-30T09:48:58.761Z,13.25
2023-04-30T09:51:27.464Z,12.66
2023-04-30T09:53:56.422Z,12.80
2023-04-30T09:56:26.078Z,13.66
2023-04-30T09:58:56.972Z,14.84
2023-04-30T10:01:27.999Z,14.88
2023-04-30T10:03:55.995Z,14.78
2023-04-30T10:06:24.377Z,15.38
2023-04-30T10:08:57.362Z,15.50
2023-04-30T10:11:29.811Z,14.47
2023-04-30T10:14:02.543Z,15.29
2023-04-30T10:16:40.435Z,14.91
2023-04-30T10:19:13.485Z,14.45
2023-04-30T10:21:43.480Z,14.86
2023-04-30T10:24:14.134Z,15.65
2023-04-30T10:26:43.527Z,15.86
2023-04-30T10:29:14.071Z,16.07
2023-04-30T10:31:42.665Z,16.24
2023-04-30T10:34:21.152Z,16.13
2023-04-30T10:36:51.368Z,16.87
2023-04-30T10:39:21.325Z,16.62
2023-04-30T10:41:49.653Z,17.41
2023-04-30T10:44:23.337Z,15.68
2023-04-30T10:46:51.121Z,16.77
2023-04-30T10:49:26.178Z,17.09
2023-04-30T10:51:56.930Z,17.98
2023-04-30T10:54:27.732Z,16.76
2023-04-30T10:56:58.258Z,15.93
2023-04-30T10:59:29.576Z,16.37
2023-04-30T11:01:59.701Z,17.80
2023-04-30T11:04:27.565Z,16.62
2023-04-30T11:07:10.713Z,17.79
2023-04-30T11:09:41.394Z,16.46
2023-04-30T11:12:14.400Z,16.42
2023-04-30T11:14:45.804Z,17.65
2023-04-30T11:17:22.790Z,17.16
2023-04-30T11:19:52.219Z,17.60
2023-04-30T11:22:23.044Z,16.58
2023-04-30T11:24:51.801Z,16.30
2023-04-30T11:27:21.918Z,16.56
2023-04-30T11:29:52.571Z,16.88
2023-04-30T11:32:20.736Z,17.43
2023-04-30T11:34:49.076Z,18.33
2023-04-30T11:37:21.044Z,17.14
2023-04-30T11:39:50.051Z,15.61
2023-04-30T11:42:18.992Z,16.49
2023-04-30T11:44:47.014Z,17.45
2023-04-30T11:47:16.537Z,17.02
2023-04-30T11:49:44.558Z,17.06
2023-04-30T11:52:14.345Z,16.65
2023-04-30T11:54:42.072Z,17.65
2023-04-30T11:57:09.791Z,18.85
2023-04-30T11:59:42.165Z,17.72
2023-04-30T12:02:12.968Z,16.65
2023-04-30T12:04:44.423Z,17.37
2023-04-30T12:07:12.200Z,17.05
2023-04-30T12:09:53.437Z,18.27
2023-04-30T12:12:28.310Z,18.62
2023-04-30T12:14:56.228Z,18.36
2023-04-30T12:17:35.748Z,19.27
2023-04-30T12:20:05.578Z,18.58
2023-04-30T12:22:33.446Z,17.14
2023-04-30T12:25:02.332Z,17.64
2023-04-30T12:27:30.190Z,18.69
2023-04-30T12:29:57.932Z,19.01
2023-04-30T12:32:26.278Z,18.34
2023-04-30T12:34:59.807Z,18.78
2023-04-30T12:37:29.241Z,17.51
2023-04-30T12:39:57.379Z,16.35
2023-04-30T12:42:26.080Z,18.54
2023-04-30T12:44:53.794Z,17.96
2023-04-30T12:47:21.698Z,18.85
2023-04-30T12:49:50.434Z,18.46
2023-04-30T12:52:18.627Z,17.95
2023-04-30T12:54:47.740Z,17.87
2023-04-30T12:57:15.456Z,18.46
2023-04-30T12:59:58.746Z,18.72
2023-04-30T13:02:28.538Z,17.95
2023-04-30T13:04:57.001Z,18.23
2023-04-30T13:07:25.100Z,17.32
2023-04-30T13:09:54.460Z,18.91
2023-04-30T13:12:22.343Z,17.75
2023-04-30T13:14:50.070Z,18.04
2023-04-30T13:17:18.208Z,18.64
2023-04-30T13:19:45.945Z,19.08
2023-04-30T13:22:13.803Z,18.38
2023-04-30T13:24:41.555Z,16.77
2023-04-30T13:27:11.061Z,16.76
2023-04-30T13:29:38.733Z,18.46
2023-04-30T13:32:06.612Z,18.21
2023-04-30T13:34:34.295Z,18.63
2023-04-30T13:37:01.988Z,18.89
2023-04-30T13:39:29.713Z,18.44
2023-04-30T13:41:57.415Z,18.47
2023-04-30T13:44:26.523Z,18.44
2023-04-30T13:46:54.251Z,18.70
2023-04-30T13:49:22.002Z,18.94
2023-04-30T13:51:49.826Z,18.63
2023-04-30T13:54:17.557Z,17.25
2023-04-30T13:56:45.313Z,17.91
2023-04-30T13:59:13.154Z,18.08
2023-04-30T14:01:42.655Z,18.90
2023-04-30T14:04:10.496Z,18.37
2023-04-30T14:06:38.701Z,18.29
2023-04-30T14:09:06.701Z,18.44
2023-04-30T14:11:34.461Z,17.53
2023-04-30T14:14:02.203Z,18.59
2023-04-30T14:16:30.464Z,18.49
2023-04-30T14:18:59.608Z,19.13
2023-04-30T14:21:28.651Z,17.69
2023-04-30T14:23:56.592Z,18.11
2023-04-30T14:26:24.318Z,17.92
2023-04-30T14:28:53.723Z,18.56
2023-04-30T14:31:21.483Z,17.39
2023-04-30T14:33:49.255Z,18.61
2023-04-30T14:36:18.389Z,18.54
2023-04-30T14:38:46.237Z,17.92
2023-04-30T14:41:14.017Z,17.38
2023-04-30T14:43:42.972Z,17.60
2023-04-30T14:46:11.744Z,17.33
2023-04-30T14:48:39.856Z,17.88
2023-04-30T14:51:07.682Z,18.48
2023-04-30T14:53:37.457Z,18.05
2023-04-30T14:56:07.132Z,16.95
2023-04-30T14:58:34.954Z,18.62
2023-04-30T15:01:02.808Z,19.07
2023-04-30T15:03:31.120Z,18.00
2023-04-30T15:06:00.795Z,18.37
2023-04-30T15:08:28.574Z,19.20
2023-04-30T15:10:58.472Z,18.77
2023-04-30T15:13:26.517Z,18.10
2023-04-30T15:15:54.489Z,17.68
2023-04-30T15:18:22.296Z,19.11
2023-04-30T15:20:50.299Z,19.53
2023-04-30T15:23:18.538Z,17.59
2023-04-30T15:25:46.288Z,18.87
2023-04-30T15:28:15.644Z,19.39
2023-04-30T15:30:43.363Z,18.15
2023-04-30T15:33:12.447Z,18.34
2023-04-30T15:35:43.487Z,17.40
2023-04-30T15:38:11.290Z,17.10
2023-04-30T15:40:39.055Z,18.34
2023-04-30T15:43:07.865Z,18.80
2023-04-30T15:45:37.124Z,17.61
2023-04-30T15:48:05.390Z,18.18
2023-04-30T15:50:33.553Z,18.43
2023-04-30T15:53:01.334Z,17.73
2023-04-30T15:55:29.089Z,17.93
2023-04-30T15:57:56.871Z,17.50
2023-04-30T16:00:24.978Z,17.13
2023-04-30T16:02:54.701Z,17.89
2023-04-30T16:05:22.536Z,16.57
2023-04-30T16:07:50.943Z,17.77
2023-04-30T16:10:19.983Z,17.86
2023-04-30T16:12:48.599Z,17.88
2023-04-30T16:15:16.525Z,17.32
2023-04-30T16:17:44.457Z,17.86
2023-04-30T16:20:14.335Z,18.85
2023-04-30T16:22:42.519Z,18.48
2023-04-30T16:25:11.701Z,17.73
2023-04-30T16:27:39.422Z,17.28
2023-04-30T16:30:08.537Z,17.26
2023-04-30T16:32:36.391Z,16.63
2023-04-30T16:35:04.934Z,17.19
2023-04-30T16:37:34.256Z,17.21
2023-04-30T16:40:02.791Z,17.17
2023-04-30T16:42:30.865Z,16.97
2023-04-30T16:44:58.732Z,17.04
2023-04-30T16:47:26.571Z,17.44
2023-04-30T16:49:55.542Z,16.75
2023-04-30T16:52:23.648Z,17.17
2023-04-30T16:54:52.737Z,16.81
2023-04-30T16:57:21.074Z,16.42
2023-04-30T16:59:48.831Z,16.16
2023-04-30T17:02:16.589Z,16.35
2023-04-30T17:04:44.504Z,16.39
2023-04-30T17:07:12.776Z,17.04
2023-04-30T17:09:41.705Z,16.43
2023-04-30T17:12:11.182Z,16.62
2023-04-30T17:14:38.923Z,16.19
2023-04-30T17:17:06.670Z,16.11
2023-04-30T17:19:34.433Z,16.01
2023-04-30T17:22:02.625Z,16.74
2023-04-30T17:24:30.415Z,16.04
2023-04-30T17:26:59.297Z,16.17
2023-04-30T17:29:28.510Z,15.96
2023-04-30T17:31:56.410Z,16.14
2023-04-30T17:34:24.237Z,16.06
2023-04-30T17:36:51.989Z,15.73
2023-04-30T17:39:20.296Z,15.83
2023-04-30T17:41:48.644Z,15.71
2023-04-30T17:44:17.073Z,15.20
2023-04-30T17:46:47.813Z,15.17
2023-04-30T17:49:15.559Z,14.87
2023-04-30T17:51:43.283Z,14.86
2023-04-30T17:54:11.056Z,14.82
2023-04-30T17:56:41.167Z,14.28
2023-04-30T17:59:09.215Z,14.82
2023-04-30T18:01:37.407Z,15.09
2023-04-30T18:04:08.806Z,14.56
2023-04-30T18:06:36.763Z,14.72
2023-04-30T18:09:04.732Z,14.47
2023-04-30T18:11:33.769Z,14.40
2023-04-30T18:14:01.917Z,14.40
2023-04-30T18:16:30.230Z,14.49
2023-04-30T18:18:57.994Z,14.05
2023-04-30T18:21:27.402Z,13.84
2023-04-30T18:23:55.164Z,13.42
2023-04-30T18:26:24.181Z,13.40
2023-04-30T18:28:52.682Z,13.18
2023-04-30T18:31:20.530Z,13.30
2023-04-30T18:33:48.283Z,13.10
2023-04-30T18:36:16.328Z,13.17
2023-04-30T18:38:45.615Z,13.13
2023-04-30T18:41:13.328Z,13.21
2023-04-30T18:43:42.618Z,13.17
2023-04-30T18:46:10.452Z,13.56
2023-04-30T18:48:38.291Z,12.85
2023-04-30T18:51:06.034Z,12.62
2023-04-30T18:53:33.838Z,12.74
2023-04-30T18:56:02.915Z,13.02
2023-04-30T18:58:30.694Z,12.80
2023-04-30T19:00:58.847Z,12.82
2023-04-30T19:03:27.166Z,13.55
2023-04-30T19:05:56.720Z,13.14
2023-04-30T19:08:24.867Z,12.77
2023-04-30T19:10:53.300Z,12.65
2023-04-30T19:13:22.516Z,12.80
2023-04-30T19:15:50.257Z,12.96
2023-04-30T19:18:17.986Z,12.98
2023-04-30T19:20:57.151Z,12.64
2023-04-30T19:23:24.913Z,12.14
2023-04-30T19:25:52.650Z,11.88
2023-04-30T19:28:20.418Z,11.87
2023-04-30T19:30:51.984Z,12.25
2023-04-30T19:33:19.932Z,12.72
2023-04-30T19:35:49.383Z,12.43
2023-04-30T19:38:17.389Z,12.15
2023-04-30T19:40:48.971Z,12.19
2023-04-30T19:43:16.694Z,12.69
2023-04-30T19:45:47.967Z,12.79
2023-04-30T19:48:17.223Z,12.89
2023-04-30T19:50:46.798Z,12.46
2023-04-30T19:53:16.202Z,12.52
2023-04-30T19:55:44.150Z,12.35
2023-04-30T19:58:11.940Z,12.38
2023-04-30T20:00:43.044Z,12.15
2023-04-30T20:03:10.815Z,12.05
2023-04-30T20:05:40.553Z,12.00
2023-04-30T20:08:09.607Z,12.08
2023-04-30T20:10:39.139Z,11.88
2023-04-30T20:13:07.870Z,12.15
2023-04-30T20:15:35.658Z,12.03
2023-04-30T20:18:05.558Z,11.53
2023-04-30T20:20:33.506Z,12.08
2023-04-30T20:23:14.100Z,11.96
2023-04-30T20:25:45.308Z,11.52
2023-04-30T20:28:13.811Z,12.00
2023-04-30T20:30:43.034Z,11.81
2023-04-30T20:33:11.052Z,11.42
2023-04-30T20:35:40.631Z,11.55
2023-04-30T20:38:09.747Z,11.41
2023-04-30T20:40:40.091Z,11.82
2023-04-30T20:43:08.377Z,11.99
2023-04-30T20:45:36.352Z,11.69
2023-04-30T20:48:04.277Z,11.40
2023-04-30T20:50:33.072Z,11.20
2023-04-30T20:53:00.804Z,11.08
2023-04-30T20:55:30.055Z,11.00
2023-04-30T20:57:57.797Z,11.84
2023-04-30T21:00:25.785Z,11.62
2023-04-30T21:02:53.999Z,11.16
2023-04-30T21:05:21.928Z,11.50
2023-04-30T21:07:49.680Z,10.75
2023-04-30T21:10:17.438Z,11.05
2023-04-30T21:12:46.538Z,10.90
2023-04-30T21:15:14.366Z,11.35
2023-04-30T21:17:42.123Z,11.24
2023-04-30T21:20:10.762Z,10.96
2023-04-30T21:22:40.027Z,10.74
2023-04-30T21:25:10.822Z,10.54
2023-04-30T21:27:38.653Z,10.93
2023-04-30T21:30:10.284Z,10.41
2023-04-30T21:32:38.417Z,10.14
2023-04-30T21:35:07.010Z,10.33
2023-04-30T21:37:34.759Z,10.22
2023-04-30T21:40:02.478Z,10.30
2023-04-30T21:42:30.326Z,9.93
2023-04-30T21:44:58.063Z,9.93
2023-04-30T21:47:27.274Z,9.57
2023-04-30T21:49:55.260Z,9.11
2023-04-30T21:52:23.192Z,9.76
2023-04-30T21:54:50.930Z,9.61
2023-04-30T21:57:19.248Z,9.65
2023-04-30T21:59:46.981Z,9.28
2023-04-30T22:02:23.800Z,8.96
2023-04-30T22:04:55.416Z,8.93
2023-04-30T22:07:23.996Z,9.93
2023-04-30T22:09:52.765Z,9.87
2023-04-30T22:12:21.453Z,9.46
2023-04-30T22:14:50.213Z,9.57
2023-04-30T22:17:17.946Z,9.14
2023-04-30T22:19:45.654Z,9.20
2023-04-30T22:22:14.905Z,8.94
2023-04-30T22:24:42.641Z,9.01
2023-04-30T22:27:10.555Z,9.09
2023-04-30T22:29:38.411Z,9.46
2023-04-30T22:32:07.403Z,9.76
2023-04-30T22:34:38.628Z,9.65
2023-04-30T22:37:06.721Z,9.37
2023-04-30T22:39:35.991Z,9.71
2023-04-30T22:42:03.935Z,10.11
2023-04-30T22:44:32.226Z,9.56
2023-04-30T22:47:02.744Z,9.56
2023-04-30T22:49:32.256Z,9.75
2023-04-30T22:52:01.348Z,9.42
2023-04-30T22:54:29.401Z,9.39
2023-04-30T22:56:59.167Z,9.45
2023-04-30T22:59:27.058Z,9.14
2023-04-30T23:01:54.831Z,9.39
2023-04-30T23:04:22.720Z,9.60
2023-04-30T23:06:50.590Z,9.29
2023-04-30T23:09:19.152Z,8.92
2023-04-30T23:11:47.654Z,8.81
2023-04-30T23:14:16.753Z,9.27
2023-04-30T23:16:44.617Z,9.83
2023-04-30T23:19:12.838Z,9.69
2023-04-30T23:21:40.596Z,8.99
2023-04-30T23:24:08.354Z,8.85
2023-04-30T23:26:36.104Z,8.84
2023-04-30T23:29:03.999Z,9.66
2023-04-30T23:31:33.228Z,9.56
2023-04-30T23:34:01.174Z,9.34
2023-04-30T23:36:28.927Z,9.84
2023-04-30T23:38:56.703Z,9.46
2023-04-30T23:41:24.776Z,9.52
2023-04-30T23:43:52.496Z,8.64
2023-04-30T23:46:20.702Z,8.72
2023-04-30T23:48:49.868Z,8.76
2023-04-30T23:51:18.692Z,9.23
2023-04-30T23:53:46.414Z,9.23
2023-04-30T23:56:14.171Z,8.79
2023-04-30T23:58:41.895Z,8.93
